sensor_id;sensor_type;location;lat;lon;timestamp;P1;durP1;ratioP1;P2;durP2;ratioP2
64923;SDS011;51436;44.692;39.214;2022-10-26T00:01:04;9.77;;;3.67;;
64923;SDS011;51436;44.692;39.214;2022-10-26T00:03:33;5.53;;;4.13;;
64923;SDS011;51436;44.692;39.214;2022-10-26T00:06:07;5.85;;;4.07;;
64923;SDS011;51436;44.692;39.214;2022-10-26T00:08:34;7.53;;;3.70;;
64923;SDS011;51436;44.692;39.214;2022-10-26T00:11:01;8.90;;;3.40;;
64923;SDS011;51436;44.692;39.214;2022-10-26T00:13:28;8.35;;;3.33;;
64923;SDS011;51436;44.692;39.214;2022-10-26T00:15:54;8.80;;;4.05;;
64923;SDS011;51436;44.692;39.214;2022-10-26T00:18:21;5.88;;;3.53;;
64923;SDS011;51436;44.692;39.214;2022-10-26T00:20:48;9.18;;;3.67;;
64923;SDS011;51436;44.692;39.214;2022-10-26T00:23:15;14.60;;;3.45;;
64923;SDS011;51436;44.692;39.214;2022-10-26T00:25:42;7.45;;;3.40;;
64923;SDS011;51436;44.692;39.214;2022-10-26T00:28:09;8.95;;;4.10;;
64923;SDS011;51436;44.692;39.214;2022-10-26T00:30:38;5.25;;;3.50;;
64923;SDS011;51436;44.692;39.214;2022-10-26T00:33:05;8.95;;;3.53;;
64923;SDS011;51436;44.692;39.214;2022-10-26T00:35:52;9.13;;;3.90;;
64923;SDS011;51436;44.692;39.214;2022-10-26T00:38:19;5.90;;;3.85;;
64923;SDS011;51436;44.692;39.214;2022-10-26T00:40:45;3.85;;;3.25;;
64923;SDS011;51436;44.692;39.214;2022-10-26T00:43:13;11.00;;;3.63;;
64923;SDS011;51436;44.692;39.214;2022-10-26T00:45:41;4.15;;;2.85;;
64923;SDS011;51436;44.692;39.214;2022-10-26T00:48:28;3.22;;;2.92;;
64923;SDS011;51436;44.692;39.214;2022-10-26T00:50:58;3.38;;;2.70;;
64923;SDS011;51436;44.692;39.214;2022-10-26T00:53:28;11.27;;;3.25;;
64923;SDS011;51436;44.692;39.214;2022-10-26T00:56:06;4.22;;;2.60;;
64923;SDS011;51436;44.692;39.214;2022-10-26T00:58:33;12.07;;;2.97;;
64923;SDS011;51436;44.692;39.214;2022-10-26T01:01:00;11.02;;;2.45;;
64923;SDS011;51436;44.692;39.214;2022-10-26T01:03:37;3.42;;;2.47;;
64923;SDS011;51436;44.692;39.214;2022-10-26T01:06:04;3.63;;;2.53;;
64923;SDS011;51436;44.692;39.214;2022-10-26T01:08:31;11.13;;;2.95;;
64923;SDS011;51436;44.692;39.214;2022-10-26T01:10:58;5.10;;;2.50;;
64923;SDS011;51436;44.692;39.214;2022-10-26T01:13:26;6.13;;;2.97;;
64923;SDS011;51436;44.692;39.214;2022-10-26T01:16:08;5.25;;;2.80;;
64923;SDS011;51436;44.692;39.214;2022-10-26T01:19:06;5.65;;;3.00;;
64923;SDS011;51436;44.692;39.214;2022-10-26T01:36:10;2.92;;;2.08;;
64923;SDS011;51436;44.692;39.214;2022-10-26T01:42:04;3.85;;;2.88;;
64923;SDS011;51436;44.692;39.214;2022-10-26T01:44:29;4.22;;;2.47;;
64923;SDS011;51436;44.692;39.214;2022-10-26T01:47:05;3.05;;;2.45;;
64923;SDS011;51436;44.692;39.214;2022-10-26T01:52:09;7.10;;;1.77;;
64923;SDS011;51436;44.692;39.214;2022-10-26T01:58:04;5.43;;;2.58;;
64923;SDS011;51436;44.692;39.214;2022-10-26T02:04:23;8.68;;;2.65;;
64923;SDS011;51436;44.692;39.214;2022-10-26T02:07:21;3.63;;;2.55;;
64923;SDS011;51436;44.692;39.214;2022-10-26T02:12:38;4.32;;;2.42;;
64923;SDS011;51436;44.692;39.214;2022-10-26T02:15:39;3.08;;;2.15;;
64923;SDS011;51436;44.692;39.214;2022-10-26T02:18:41;3.30;;;1.95;;
64923;SDS011;51436;44.692;39.214;2022-10-26T02:21:11;3.78;;;1.90;;
64923;SDS011;51436;44.692;39.214;2022-10-26T02:23:41;4.97;;;1.80;;
64923;SDS011;51436;44.692;39.214;2022-10-26T02:26:12;4.07;;;2.25;;
64923;SDS011;51436;44.692;39.214;2022-10-26T02:28:43;5.07;;;2.53;;
64923;SDS011;51436;44.692;39.214;2022-10-26T02:31:13;5.30;;;1.42;;
64923;SDS011;51436;44.692;39.214;2022-10-26T02:33:52;2.63;;;1.50;;
64923;SDS011;51436;44.692;39.214;2022-10-26T02:36:24;5.72;;;1.80;;
64923;SDS011;51436;44.692;39.214;2022-10-26T02:38:56;6.88;;;2.03;;
64923;SDS011;51436;44.692;39.214;2022-10-26T02:41:24;4.60;;;1.70;;
64923;SDS011;51436;44.692;39.214;2022-10-26T02:43:54;1.83;;;1.42;;
64923;SDS011;51436;44.692;39.214;2022-10-26T02:46:26;2.42;;;1.50;;
64923;SDS011;51436;44.692;39.214;2022-10-26T02:48:54;3.33;;;1.83;;
64923;SDS011;51436;44.692;39.214;2022-10-26T02:51:28;1.50;;;1.40;;
64923;SDS011;51436;44.692;39.214;2022-10-26T02:54:17;2.17;;;1.65;;
64923;SDS011;51436;44.692;39.214;2022-10-26T02:57:28;3.67;;;2.13;;
64923;SDS011;51436;44.692;39.214;2022-10-26T02:59:51;2.88;;;1.48;;
64923;SDS011;51436;44.692;39.214;2022-10-26T03:02:19;15.10;;;2.13;;
64923;SDS011;51436;44.692;39.214;2022-10-26T03:04:48;3.92;;;1.55;;
64923;SDS011;51436;44.692;39.214;2022-10-26T03:07:24;4.13;;;2.10;;
64923;SDS011;51436;44.692;39.214;2022-10-26T03:09:50;1.90;;;1.80;;
64923;SDS011;51436;44.692;39.214;2022-10-26T03:12:17;5.95;;;1.92;;
64923;SDS011;51436;44.692;39.214;2022-10-26T03:14:43;7.10;;;1.48;;
64923;SDS011;51436;44.692;39.214;2022-10-26T03:17:10;1.95;;;1.63;;
64923;SDS011;51436;44.692;39.214;2022-10-26T03:19:36;4.47;;;2.03;;
64923;SDS011;51436;44.692;39.214;2022-10-26T03:22:02;2.55;;;1.67;;
64923;SDS011;51436;44.692;39.214;2022-10-26T03:24:29;3.63;;;2.05;;
64923;SDS011;51436;44.692;39.214;2022-10-26T03:26:55;14.13;;;2.70;;
64923;SDS011;51436;44.692;39.214;2022-10-26T03:29:22;4.10;;;2.13;;
64923;SDS011;51436;44.692;39.214;2022-10-26T03:31:48;4.65;;;2.00;;
64923;SDS011;51436;44.692;39.214;2022-10-26T03:34:19;3.65;;;2.30;;
64923;SDS011;51436;44.692;39.214;2022-10-26T03:36:46;3.20;;;1.98;;
64923;SDS011;51436;44.692;39.214;2022-10-26T03:39:12;2.78;;;1.98;;
64923;SDS011;51436;44.692;39.214;2022-10-26T03:41:39;1.95;;;1.85;;
64923;SDS011;51436;44.692;39.214;2022-10-26T03:44:05;3.00;;;2.17;;
64923;SDS011;51436;44.692;39.214;2022-10-26T03:46:31;6.03;;;2.50;;
64923;SDS011;51436;44.692;39.214;2022-10-26T03:48:58;7.25;;;2.65;;
64923;SDS011;51436;44.692;39.214;2022-10-26T03:51:24;11.95;;;2.20;;
64923;SDS011;51436;44.692;39.214;2022-10-26T03:53:50;4.88;;;1.85;;
64923;SDS011;51436;44.692;39.214;2022-10-26T03:56:17;3.33;;;2.05;;
64923;SDS011;51436;44.692;39.214;2022-10-26T03:58:43;2.83;;;1.98;;
64923;SDS011;51436;44.692;39.214;2022-10-26T04:01:09;9.13;;;3.08;;
64923;SDS011;51436;44.692;39.214;2022-10-26T04:03:36;3.10;;;2.28;;
64923;SDS011;51436;44.692;39.214;2022-10-26T04:06:02;3.63;;;2.22;;
64923;SDS011;51436;44.692;39.214;2022-10-26T04:08:29;11.68;;;1.90;;
64923;SDS011;51436;44.692;39.214;2022-10-26T04:10:56;2.53;;;1.55;;
64923;SDS011;51436;44.692;39.214;2022-10-26T04:13:22;2.40;;;1.80;;
64923;SDS011;51436;44.692;39.214;2022-10-26T04:15:49;11.20;;;1.95;;
64923;SDS011;51436;44.692;39.214;2022-10-26T04:18:15;6.28;;;2.00;;
64923;SDS011;51436;44.692;39.214;2022-10-26T04:20:42;2.45;;;1.92;;
64923;SDS011;51436;44.692;39.214;2022-10-26T04:23:12;5.18;;;1.80;;
64923;SDS011;51436;44.692;39.214;2022-10-26T04:25:40;3.58;;;2.42;;
64923;SDS011;51436;44.692;39.214;2022-10-26T04:28:08;7.00;;;2.10;;
64923;SDS011;51436;44.692;39.214;2022-10-26T04:30:36;6.38;;;2.28;;
64923;SDS011;51436;44.692;39.214;2022-10-26T04:33:03;3.70;;;2.35;;
64923;SDS011;51436;44.692;39.214;2022-10-26T04:35:30;4.03;;;1.98;;
64923;SDS011;51436;44.692;39.214;2022-10-26T04:38:00;8.20;;;2.30;;
64923;SDS011;51436;44.692;39.214;2022-10-26T04:40:29;10.13;;;2.17;;
64923;SDS011;51436;44.692;39.214;2022-10-26T04:42:56;10.00;;;3.58;;
64923;SDS011;51436;44.692;39.214;2022-10-26T04:45:23;5.53;;;2.35;;
64923;SDS011;51436;44.692;39.214;2022-10-26T04:48:05;9.43;;;1.92;;
64923;SDS011;51436;44.692;39.214;2022-10-26T04:50:34;6.53;;;2.08;;
64923;SDS011;51436;44.692;39.214;2022-10-26T04:53:02;6.63;;;1.92;;
64923;SDS011;51436;44.692;39.214;2022-10-26T04:55:29;5.43;;;2.20;;
64923;SDS011;51436;44.692;39.214;2022-10-26T04:57:56;5.25;;;1.92;;
64923;SDS011;51436;44.692;39.214;2022-10-26T05:00:22;9.90;;;1.98;;
64923;SDS011;51436;44.692;39.214;2022-10-26T05:02:49;8.27;;;1.90;;
64923;SDS011;51436;44.692;39.214;2022-10-26T05:05:15;7.55;;;2.53;;
64923;SDS011;51436;44.692;39.214;2022-10-26T05:07:41;3.28;;;1.70;;
64923;SDS011;51436;44.692;39.214;2022-10-26T05:10:08;9.20;;;1.77;;
64923;SDS011;51436;44.692;39.214;2022-10-26T05:12:35;2.08;;;1.60;;
64923;SDS011;51436;44.692;39.214;2022-10-26T05:15:01;3.90;;;2.20;;
64923;SDS011;51436;44.692;39.214;2022-10-26T05:17:28;5.00;;;2.45;;
64923;SDS011;51436;44.692;39.214;2022-10-26T05:19:55;2.13;;;1.60;;
64923;SDS011;51436;44.692;39.214;2022-10-26T05:22:25;12.77;;;2.10;;
64923;SDS011;51436;44.692;39.214;2022-10-26T05:24:52;3.03;;;1.83;;
64923;SDS011;51436;44.692;39.214;2022-10-26T05:27:18;5.38;;;1.63;;
64923;SDS011;51436;44.692;39.214;2022-10-26T05:29:45;7.45;;;2.20;;
64923;SDS011;51436;44.692;39.214;2022-10-26T05:32:11;9.13;;;1.88;;
64923;SDS011;51436;44.692;39.214;2022-10-26T05:37:31;3.95;;;2.20;;
64923;SDS011;51436;44.692;39.214;2022-10-26T05:40:10;12.05;;;2.75;;
64923;SDS011;51436;44.692;39.214;2022-10-26T05:42:37;10.20;;;2.50;;
64923;SDS011;51436;44.692;39.214;2022-10-26T05:45:03;10.25;;;2.30;;
64923;SDS011;51436;44.692;39.214;2022-10-26T05:47:39;8.95;;;2.90;;
64923;SDS011;51436;44.692;39.214;2022-10-26T05:50:35;3.30;;;2.22;;
64923;SDS011;51436;44.692;39.214;2022-10-26T05:53:01;7.07;;;2.28;;
64923;SDS011;51436;44.692;39.214;2022-10-26T05:55:28;7.35;;;2.22;;
64923;SDS011;51436;44.692;39.214;2022-10-26T05:57:55;2.63;;;1.77;;
64923;SDS011;51436;44.692;39.214;2022-10-26T06:00:23;4.00;;;1.92;;
64923;SDS011;51436;44.692;39.214;2022-10-26T06:05:24;2.90;;;1.58;;
64923;SDS011;51436;44.692;39.214;2022-10-26T06:07:53;5.80;;;1.67;;
64923;SDS011;51436;44.692;39.214;2022-10-26T06:13:28;3.55;;;2.22;;
64923;SDS011;51436;44.692;39.214;2022-10-26T06:16:03;2.33;;;1.95;;
64923;SDS011;51436;44.692;39.214;2022-10-26T06:19:11;4.28;;;1.85;;
64923;SDS011;51436;44.692;39.214;2022-10-26T06:22:45;4.57;;;1.33;;
64923;SDS011;51436;44.692;39.214;2022-10-26T06:28:02;4.82;;;1.90;;
64923;SDS011;51436;44.692;39.214;2022-10-26T06:30:30;3.08;;;1.60;;
64923;SDS011;51436;44.692;39.214;2022-10-26T06:32:56;6.38;;;1.73;;
64923;SDS011;51436;44.692;39.214;2022-10-26T06:35:30;3.28;;;1.52;;
64923;SDS011;51436;44.692;39.214;2022-10-26T06:37:59;5.83;;;1.50;;
64923;SDS011;51436;44.692;39.214;2022-10-26T06:40:30;4.35;;;2.10;;
64923;SDS011;51436;44.692;39.214;2022-10-26T06:43:00;2.10;;;1.75;;
64923;SDS011;51436;44.692;39.214;2022-10-26T06:45:27;2.90;;;2.10;;
64923;SDS011;51436;44.692;39.214;2022-10-26T06:48:02;3.92;;;1.70;;
64923;SDS011;51436;44.692;39.214;2022-10-26T06:53:15;5.47;;;1.92;;
64923;SDS011;51436;44.692;39.214;2022-10-26T06:58:17;5.60;;;2.05;;
64923;SDS011;51436;44.692;39.214;2022-10-26T07:00:46;4.18;;;2.13;;
64923;SDS011;51436;44.692;39.214;2022-10-26T07:03:15;4.40;;;1.83;;
64923;SDS011;51436;44.692;39.214;2022-10-26T07:05:42;4.07;;;2.38;;
64923;SDS011;51436;44.692;39.214;2022-10-26T07:08:09;6.40;;;3.40;;
64923;SDS011;51436;44.692;39.214;2022-10-26T07:10:36;8.32;;;3.35;;
64923;SDS011;51436;44.692;39.214;2022-10-26T07:13:06;13.05;;;5.28;;
64923;SDS011;51436;44.692;39.214;2022-10-26T07:15:34;16.65;;;5.38;;
64923;SDS011;51436;44.692;39.214;2022-10-26T07:18:02;13.32;;;6.20;;
64923;SDS011;51436;44.692;39.214;2022-10-26T07:20:37;17.33;;;6.15;;
64923;SDS011;51436;44.692;39.214;2022-10-26T07:23:05;13.63;;;5.07;;
64923;SDS011;51436;44.692;39.214;2022-10-26T07:25:33;13.93;;;5.35;;
64923;SDS011;51436;44.692;39.214;2022-10-26T07:28:00;10.70;;;5.00;;
64923;SDS011;51436;44.692;39.214;2022-10-26T07:30:27;11.27;;;5.35;;
64923;SDS011;51436;44.692;39.214;2022-10-26T07:44:22;22.27;;;8.93;;
64923;SDS011;51436;44.692;39.214;2022-10-26T07:46:50;26.27;;;8.65;;
64923;SDS011;51436;44.692;39.214;2022-10-26T07:49:16;20.67;;;7.18;;
64923;SDS011;51436;44.692;39.214;2022-10-26T07:51:43;20.05;;;7.85;;
64923;SDS011;51436;44.692;39.214;2022-10-26T07:54:09;18.17;;;7.28;;
64923;SDS011;51436;44.692;39.214;2022-10-26T07:56:35;19.23;;;7.57;;
64923;SDS011;51436;44.692;39.214;2022-10-26T07:59:02;25.48;;;6.88;;
64923;SDS011;51436;44.692;39.214;2022-10-26T08:01:28;13.48;;;6.85;;
64923;SDS011;51436;44.692;39.214;2022-10-26T08:03:55;18.35;;;6.20;;
64923;SDS011;51436;44.692;39.214;2022-10-26T08:06:22;14.75;;;6.28;;
64923;SDS011;51436;44.692;39.214;2022-10-26T08:08:48;12.15;;;5.07;;
64923;SDS011;51436;44.692;39.214;2022-10-26T08:11:16;11.45;;;4.82;;
64923;SDS011;51436;44.692;39.214;2022-10-26T08:13:43;10.77;;;4.22;;
64923;SDS011;51436;44.692;39.214;2022-10-26T08:16:09;21.20;;;5.32;;
64923;SDS011;51436;44.692;39.214;2022-10-26T08:18:36;16.33;;;5.65;;
64923;SDS011;51436;44.692;39.214;2022-10-26T08:21:06;12.00;;;5.40;;
64923;SDS011;51436;44.692;39.214;2022-10-26T08:23:37;14.07;;;5.10;;
64923;SDS011;51436;44.692;39.214;2022-10-26T08:26:03;23.55;;;4.82;;
64923;SDS011;51436;44.692;39.214;2022-10-26T08:28:30;7.82;;;4.40;;
64923;SDS011;51436;44.692;39.214;2022-10-26T08:30:56;15.63;;;4.32;;
64923;SDS011;51436;44.692;39.214;2022-10-26T08:33:23;9.48;;;3.85;;
64923;SDS011;51436;44.692;39.214;2022-10-26T08:35:59;5.95;;;3.40;;
64923;SDS011;51436;44.692;39.214;2022-10-26T08:38:26;9.65;;;3.63;;
64923;SDS011;51436;44.692;39.214;2022-10-26T08:40:53;5.95;;;3.38;;
64923;SDS011;51436;44.692;39.214;2022-10-26T08:46:22;4.90;;;3.35;;
64923;SDS011;51436;44.692;39.214;2022-10-26T08:51:54;12.13;;;3.83;;
64923;SDS011;51436;44.692;39.214;2022-10-26T08:54:33;5.35;;;3.78;;
64923;SDS011;51436;44.692;39.214;2022-10-26T08:57:14;6.00;;;3.75;;
64923;SDS011;51436;44.692;39.214;2022-10-26T08:59:58;9.70;;;4.60;;
64923;SDS011;51436;44.692;39.214;2022-10-26T09:02:30;8.77;;;4.53;;
64923;SDS011;51436;44.692;39.214;2022-10-26T09:04:57;15.50;;;5.32;;
64923;SDS011;51436;44.692;39.214;2022-10-26T09:07:35;16.45;;;7.40;;
64923;SDS011;51436;44.692;39.214;2022-10-26T09:13:03;22.55;;;8.40;;
64923;SDS011;51436;44.692;39.214;2022-10-26T09:26:59;21.58;;;7.20;;
64923;SDS011;51436;44.692;39.214;2022-10-26T09:29:29;12.40;;;4.22;;
64923;SDS011;51436;44.692;39.214;2022-10-26T09:32:01;17.98;;;7.10;;
64923;SDS011;51436;44.692;39.214;2022-10-26T09:34:36;5.25;;;3.72;;
64923;SDS011;51436;44.692;39.214;2022-10-26T09:37:14;3.75;;;2.42;;
64923;SDS011;51436;44.692;39.214;2022-10-26T09:39:57;11.77;;;3.40;;
64923;SDS011;51436;44.692;39.214;2022-10-26T09:51:14;8.13;;;1.98;;
64923;SDS011;51436;44.692;39.214;2022-10-26T09:53:41;8.65;;;1.80;;
64923;SDS011;51436;44.692;39.214;2022-10-26T09:56:11;6.45;;;1.67;;
64923;SDS011;51436;44.692;39.214;2022-10-26T09:58:43;7.97;;;2.22;;
64923;SDS011;51436;44.692;39.214;2022-10-26T10:01:20;4.38;;;2.67;;
64923;SDS011;51436;44.692;39.214;2022-10-26T10:04:09;4.03;;;2.53;;
64923;SDS011;51436;44.692;39.214;2022-10-26T10:06:50;3.20;;;1.63;;
64923;SDS011;51436;44.692;39.214;2022-10-26T10:09:26;3.42;;;1.70;;
64923;SDS011;51436;44.692;39.214;2022-10-26T10:11:53;4.82;;;2.47;;
64923;SDS011;51436;44.692;39.214;2022-10-26T10:14:31;3.90;;;1.83;;
64923;SDS011;51436;44.692;39.214;2022-10-26T10:17:03;5.03;;;1.90;;
64923;SDS011;51436;44.692;39.214;2022-10-26T10:19:36;2.10;;;1.33;;
64923;SDS011;51436;44.692;39.214;2022-10-26T10:27:20;14.05;;;4.70;;
64923;SDS011;51436;44.692;39.214;2022-10-26T10:29:49;17.98;;;6.47;;
64923;SDS011;51436;44.692;39.214;2022-10-26T10:32:21;28.02;;;6.63;;
64923;SDS011;51436;44.692;39.214;2022-10-26T10:35:00;19.27;;;6.68;;
64923;SDS011;51436;44.692;39.214;2022-10-26T10:37:39;21.30;;;7.95;;
64923;SDS011;51436;44.692;39.214;2022-10-26T10:42:49;14.27;;;4.95;;
64923;SDS011;51436;44.692;39.214;2022-10-26T10:45:25;8.05;;;3.88;;
64923;SDS011;51436;44.692;39.214;2022-10-26T10:48:01;8.80;;;3.20;;
64923;SDS011;51436;44.692;39.214;2022-10-26T10:50:31;13.50;;;6.40;;
64923;SDS011;51436;44.692;39.214;2022-10-26T10:53:11;5.80;;;3.72;;
64923;SDS011;51436;44.692;39.214;2022-10-26T10:58:50;11.32;;;3.95;;
64923;SDS011;51436;44.692;39.214;2022-10-26T11:01:39;8.80;;;5.00;;
64923;SDS011;51436;44.692;39.214;2022-10-26T11:07:08;7.30;;;3.95;;
64923;SDS011;51436;44.692;39.214;2022-10-26T11:09:38;9.15;;;3.70;;
64923;SDS011;51436;44.692;39.214;2022-10-26T11:12:12;2.75;;;1.85;;
64923;SDS011;51436;44.692;39.214;2022-10-26T11:14:47;1.45;;;0.95;;
64923;SDS011;51436;44.692;39.214;2022-10-26T11:17:21;11.25;;;0.95;;
64923;SDS011;51436;44.692;39.214;2022-10-26T11:19:54;0.63;;;0.60;;
64923;SDS011;51436;44.692;39.214;2022-10-26T11:22:26;1.45;;;0.80;;
64923;SDS011;51436;44.692;39.214;2022-10-26T11:25:02;5.72;;;0.68;;
64923;SDS011;51436;44.692;39.214;2022-10-26T11:27:33;5.60;;;0.70;;
64923;SDS011;51436;44.692;39.214;2022-10-26T11:30:19;1.08;;;0.68;;
64923;SDS011;51436;44.692;39.214;2022-10-26T11:33:01;0.80;;;0.80;;
64923;SDS011;51436;44.692;39.214;2022-10-26T11:38:28;2.20;;;0.70;;
64923;SDS011;51436;44.692;39.214;2022-10-26T11:44:18;1.30;;;0.70;;
64923;SDS011;51436;44.692;39.214;2022-10-26T11:47:09;1.15;;;0.93;;
64923;SDS011;51436;44.692;39.214;2022-10-26T11:52:37;3.97;;;0.80;;
64923;SDS011;51436;44.692;39.214;2022-10-26T11:55:12;0.52;;;0.52;;
64923;SDS011;51436;44.692;39.214;2022-10-26T11:58:02;0.60;;;0.60;;
64923;SDS011;51436;44.692;39.214;2022-10-26T12:00:29;1.88;;;0.80;;
64923;SDS011;51436;44.692;39.214;2022-10-26T12:03:08;3.53;;;0.65;;
64923;SDS011;51436;44.692;39.214;2022-10-26T12:08:26;0.60;;;0.60;;
64923;SDS011;51436;44.692;39.214;2022-10-26T12:13:49;2.03;;;1.00;;
64923;SDS011;51436;44.692;39.214;2022-10-26T12:16:43;9.80;;;0.90;;
64923;SDS011;51436;44.692;39.214;2022-10-26T12:22:15;1.85;;;0.90;;
64923;SDS011;51436;44.692;39.214;2022-10-26T12:24:44;3.15;;;0.90;;
64923;SDS011;51436;44.692;39.214;2022-10-26T12:27:30;9.02;;;1.02;;
64923;SDS011;51436;44.692;39.214;2022-10-26T12:38:00;3.05;;;1.80;;
64923;SDS011;51436;44.692;39.214;2022-10-26T12:40:47;6.78;;;1.58;;
64923;SDS011;51436;44.692;39.214;2022-10-26T12:43:33;5.00;;;1.73;;
64923;SDS011;51436;44.692;39.214;2022-10-26T12:48:41;11.07;;;1.85;;
64923;SDS011;51436;44.692;39.214;2022-10-26T12:51:42;6.30;;;1.88;;
64923;SDS011;51436;44.692;39.214;2022-10-26T12:56:55;5.43;;;2.10;;
64923;SDS011;51436;44.692;39.214;2022-10-26T13:07:48;29.98;;;11.75;;
64923;SDS011;51436;44.692;39.214;2022-10-26T13:10:19;48.00;;;15.52;;
64923;SDS011;51436;44.692;39.214;2022-10-26T13:12:51;54.13;;;20.80;;
64923;SDS011;51436;44.692;39.214;2022-10-26T13:20:28;104.07;;;41.85;;
64923;SDS011;51436;44.692;39.214;2022-10-26T13:22:56;109.80;;;44.88;;
64923;SDS011;51436;44.692;39.214;2022-10-26T13:26:11;65.38;;;21.15;;
64923;SDS011;51436;44.692;39.214;2022-10-26T13:33:56;9.70;;;4.90;;
64923;SDS011;51436;44.692;39.214;2022-10-26T13:39:41;37.20;;;12.70;;
64923;SDS011;51436;44.692;39.214;2022-10-26T13:42:12;40.92;;;15.75;;
64923;SDS011;51436;44.692;39.214;2022-10-26T13:52:33;56.67;;;22.90;;
64923;SDS011;51436;44.692;39.214;2022-10-26T13:55:14;58.90;;;23.08;;
64923;SDS011;51436;44.692;39.214;2022-10-26T14:01:02;39.72;;;16.73;;
64923;SDS011;51436;44.692;39.214;2022-10-26T14:06:33;17.08;;;6.28;;
64923;SDS011;51436;44.692;39.214;2022-10-26T14:09:03;8.30;;;4.13;;
64923;SDS011;51436;44.692;39.214;2022-10-26T14:14:23;20.52;;;8.32;;
64923;SDS011;51436;44.692;39.214;2022-10-26T14:16:52;18.27;;;8.95;;
64923;SDS011;51436;44.692;39.214;2022-10-26T14:19:36;47.95;;;17.45;;
64923;SDS011;51436;44.692;39.214;2022-10-26T14:22:05;62.15;;;22.88;;
64923;SDS011;51436;44.692;39.214;2022-10-26T14:24:33;54.75;;;19.48;;
64923;SDS011;51436;44.692;39.214;2022-10-26T14:27:13;53.78;;;18.15;;
64923;SDS011;51436;44.692;39.214;2022-10-26T14:29:44;64.97;;;27.30;;
64923;SDS011;51436;44.692;39.214;2022-10-26T14:34:47;193.32;;;74.13;;
64923;SDS011;51436;44.692;39.214;2022-10-26T14:37:24;119.63;;;43.30;;
64923;SDS011;51436;44.692;39.214;2022-10-26T14:40:01;79.72;;;31.73;;
64923;SDS011;51436;44.692;39.214;2022-10-26T14:42:30;54.55;;;23.50;;
64923;SDS011;51436;44.692;39.214;2022-10-26T14:44:59;30.10;;;14.38;;
64923;SDS011;51436;44.692;39.214;2022-10-26T14:47:30;27.27;;;11.45;;
64923;SDS011;51436;44.692;39.214;2022-10-26T14:49:58;21.40;;;10.07;;
64923;SDS011;51436;44.692;39.214;2022-10-26T14:52:28;25.42;;;10.57;;
64923;SDS011;51436;44.692;39.214;2022-10-26T14:55:02;33.75;;;14.00;;
64923;SDS011;51436;44.692;39.214;2022-10-26T14:57:38;42.38;;;16.67;;
64923;SDS011;51436;44.692;39.214;2022-10-26T15:00:17;58.63;;;23.70;;
64923;SDS011;51436;44.692;39.214;2022-10-26T15:02:45;62.75;;;25.50;;
64923;SDS011;51436;44.692;39.214;2022-10-26T15:05:17;65.38;;;28.02;;
64923;SDS011;51436;44.692;39.214;2022-10-26T15:07:53;62.40;;;25.50;;
64923;SDS011;51436;44.692;39.214;2022-10-26T15:13:09;52.05;;;20.40;;
64923;SDS011;51436;44.692;39.214;2022-10-26T15:15:55;48.20;;;21.83;;
64923;SDS011;51436;44.692;39.214;2022-10-26T15:18:32;55.88;;;22.33;;
64923;SDS011;51436;44.692;39.214;2022-10-26T15:21:01;43.50;;;20.70;;
64923;SDS011;51436;44.692;39.214;2022-10-26T15:23:31;42.45;;;18.20;;
64923;SDS011;51436;44.692;39.214;2022-10-26T15:25:58;37.42;;;17.45;;
64923;SDS011;51436;44.692;39.214;2022-10-26T15:28:31;44.17;;;19.45;;
64923;SDS011;51436;44.692;39.214;2022-10-26T15:31:05;39.47;;;19.30;;
64923;SDS011;51436;44.692;39.214;2022-10-26T15:33:35;36.03;;;16.33;;
64923;SDS011;51436;44.692;39.214;2022-10-26T15:36:22;31.65;;;15.23;;
64923;SDS011;51436;44.692;39.214;2022-10-26T15:41:43;30.20;;;13.18;;
64923;SDS011;51436;44.692;39.214;2022-10-26T15:44:12;24.88;;;12.35;;
64923;SDS011;51436;44.692;39.214;2022-10-26T15:46:42;29.90;;;13.38;;
64923;SDS011;51436;44.692;39.214;2022-10-26T15:52:07;33.15;;;12.65;;
64923;SDS011;51436;44.692;39.214;2022-10-26T15:54:34;25.17;;;13.52;;
64923;SDS011;51436;44.692;39.214;2022-10-26T15:57:00;30.65;;;14.20;;
64923;SDS011;51436;44.692;39.214;2022-10-26T15:59:27;26.45;;;13.35;;
64923;SDS011;51436;44.692;39.214;2022-10-26T16:01:53;25.52;;;12.85;;
64923;SDS011;51436;44.692;39.214;2022-10-26T16:04:19;26.10;;;13.02;;
64923;SDS011;51436;44.692;39.214;2022-10-26T16:06:46;25.17;;;11.00;;
64923;SDS011;51436;44.692;39.214;2022-10-26T16:09:14;21.55;;;12.23;;
64923;SDS011;51436;44.692;39.214;2022-10-26T16:11:43;23.25;;;11.85;;
64923;SDS011;51436;44.692;39.214;2022-10-26T16:14:10;22.60;;;11.15;;
64923;SDS011;51436;44.692;39.214;2022-10-26T16:16:37;22.98;;;10.45;;
64923;SDS011;51436;44.692;39.214;2022-10-26T16:19:04;21.30;;;11.05;;
64923;SDS011;51436;44.692;39.214;2022-10-26T16:21:31;19.73;;;11.50;;
64923;SDS011;51436;44.692;39.214;2022-10-26T16:23:57;28.63;;;10.55;;
64923;SDS011;51436;44.692;39.214;2022-10-26T16:26:23;20.13;;;11.05;;
64923;SDS011;51436;44.692;39.214;2022-10-26T16:28:50;16.70;;;10.15;;
64923;SDS011;51436;44.692;39.214;2022-10-26T16:31:18;23.25;;;10.15;;
64923;SDS011;51436;44.692;39.214;2022-10-26T16:33:45;20.70;;;10.65;;
64923;SDS011;51436;44.692;39.214;2022-10-26T16:36:12;21.98;;;10.75;;
64923;SDS011;51436;44.692;39.214;2022-10-26T16:38:39;22.27;;;10.55;;
64923;SDS011;51436;44.692;39.214;2022-10-26T16:41:07;26.65;;;9.35;;
64923;SDS011;51436;44.692;39.214;2022-10-26T16:43:36;18.25;;;9.27;;
64923;SDS011;51436;44.692;39.214;2022-10-26T16:46:04;17.52;;;9.02;;
64923;SDS011;51436;44.692;39.214;2022-10-26T16:48:36;15.27;;;9.02;;
64923;SDS011;51436;44.692;39.214;2022-10-26T16:51:07;13.68;;;8.35;;
64923;SDS011;51436;44.692;39.214;2022-10-26T16:53:38;16.85;;;7.68;;
64923;SDS011;51436;44.692;39.214;2022-10-26T16:56:05;12.25;;;7.18;;
64923;SDS011;51436;44.692;39.214;2022-10-26T16:58:34;15.55;;;6.93;;
64923;SDS011;51436;44.692;39.214;2022-10-26T17:01:00;11.27;;;7.43;;
64923;SDS011;51436;44.692;39.214;2022-10-26T17:03:27;14.30;;;7.45;;
64923;SDS011;51436;44.692;39.214;2022-10-26T17:06:02;12.25;;;6.97;;
64923;SDS011;51436;44.692;39.214;2022-10-26T17:08:32;11.55;;;7.13;;
64923;SDS011;51436;44.692;39.214;2022-10-26T17:11:06;13.95;;;7.65;;
64923;SDS011;51436;44.692;39.214;2022-10-26T17:13:35;11.80;;;6.63;;
64923;SDS011;51436;44.692;39.214;2022-10-26T17:16:06;11.82;;;6.72;;
64923;SDS011;51436;44.692;39.214;2022-10-26T17:18:42;18.35;;;7.93;;
64923;SDS011;51436;44.692;39.214;2022-10-26T17:21:10;18.95;;;7.82;;
64923;SDS011;51436;44.692;39.214;2022-10-26T17:23:37;18.25;;;7.70;;
64923;SDS011;51436;44.692;39.214;2022-10-26T17:26:04;15.73;;;7.72;;
64923;SDS011;51436;44.692;39.214;2022-10-26T17:28:32;18.40;;;7.13;;
64923;SDS011;51436;44.692;39.214;2022-10-26T17:31:02;19.85;;;9.65;;
64923;SDS011;51436;44.692;39.214;2022-10-26T17:33:31;13.60;;;8.65;;
64923;SDS011;51436;44.692;39.214;2022-10-26T17:36:02;14.10;;;8.77;;
64923;SDS011;51436;44.692;39.214;2022-10-26T17:38:33;18.77;;;10.98;;
64923;SDS011;51436;44.692;39.214;2022-10-26T17:41:05;26.60;;;13.38;;
64923;SDS011;51436;44.692;39.214;2022-10-26T17:43:34;31.27;;;13.07;;
64923;SDS011;51436;44.692;39.214;2022-10-26T17:46:03;21.52;;;10.18;;
64923;SDS011;51436;44.692;39.214;2022-10-26T17:48:32;25.30;;;9.90;;
64923;SDS011;51436;44.692;39.214;2022-10-26T17:51:03;20.08;;;9.75;;
64923;SDS011;51436;44.692;39.214;2022-10-26T17:53:32;20.05;;;10.45;;